createdAt,value
2024-01-31T00:01:09.294Z,6.83
2024-01-31T00:03:27.922Z,6.61
2024-01-31T00:05:36.159Z,7.44
2024-01-31T00:07:44.617Z,9.75
2024-01-31T00:09:52.768Z,11.20
2024-01-31T00:12:01.282Z,11.00
2024-01-31T00:14:09.894Z,10.07
2024-01-31T00:16:18.175Z,9.24
2024-01-31T00:18:26.466Z,8.58
2024-01-31T00:20:34.597Z,8.08
2024-01-31T00:22:45.680Z,7.65
2024-01-31T00:24:53.884Z,7.29
2024-01-31T00:27:01.949Z,7.00
2024-01-31T00:29:10.033Z,7.24
2024-01-31T00:31:18.954Z,9.13
2024-01-31T00:33:27.128Z,10.87
2024-01-31T00:35:35.301Z,11.60
2024-01-31T00:37:43.873Z,10.71
2024-01-31T00:39:52.101Z,9.73
2024-01-31T00:42:00.273Z,8.92
2024-01-31T00:44:08.503Z,8.25
2024-01-31T00:46:16.811Z,7.76
2024-01-31T00:48:25.153Z,7.36
2024-01-31T00:50:33.512Z,7.02
2024-01-31T00:52:45.567Z,6.73
2024-01-31T00:54:54.255Z,6.87
2024-01-31T00:57:02.615Z,8.77
2024-01-31T00:59:10.817Z,10.57
2024-01-31T01:01:19.351Z,11.30
2024-01-31T01:03:27.655Z,10.77
2024-01-31T01:05:35.959Z,9.80
2024-01-31T01:07:46.919Z,8.93
2024-01-31T01:09:55.230Z,8.25
2024-01-31T01:12:04.372Z,7.75
2024-01-31T01:14:12.446Z,7.34
2024-01-31T01:16:21.639Z,7.01
2024-01-31T01:18:29.764Z,6.72
2024-01-31T01:20:38.385Z,6.55
2024-01-31T01:22:48.010Z,7.85
2024-01-31T01:24:56.218Z,9.94
2024-01-31T01:27:04.408Z,11.28
2024-01-31T01:29:12.629Z,11.30
2024-01-31T01:31:20.852Z,10.39
2024-01-31T01:33:29.052Z,9.42
2024-01-31T01:35:39.880Z,8.60
2024-01-31T01:37:48.035Z,7.95
2024-01-31T01:39:56.313Z,7.45
2024-01-31T01:42:04.517Z,7.02
2024-01-31T01:44:15.820Z,7.23
2024-01-31T01:46:25.397Z,9.15
2024-01-31T01:48:33.568Z,10.81
2024-01-31T01:50:42.469Z,11.51
2024-01-31T01:52:51.732Z,10.71
2024-01-31T01:55:04.107Z,9.66
2024-01-31T01:57:13.398Z,8.77
2024-01-31T01:59:22.328Z,8.08
2024-01-31T02:01:31.370Z,7.55
2024-01-31T02:03:39.823Z,7.09
2024-01-31T02:05:48.425Z,6.77
2024-01-31T02:07:57.571Z,7.61
2024-01-31T02:10:06.380Z,9.75
2024-01-31T02:12:14.996Z,11.28
2024-01-31T02:14:23.102Z,11.94
2024-01-31T02:16:31.949Z,11.18
2024-01-31T02:18:40.227Z,10.08
2024-01-31T02:20:48.797Z,9.14
2024-01-31T02:22:58.261Z,8.37
2024-01-31T02:25:13.164Z,7.79
2024-01-31T02:27:22.576Z,7.33
2024-01-31T02:29:30.756Z,6.96
2024-01-31T02:31:38.985Z,6.66
2024-01-31T02:33:47.145Z,6.40
2024-01-31T02:35:55.339Z,6.18
2024-01-31T02:38:03.762Z,6.46
2024-01-31T02:40:13.421Z,8.56
2024-01-31T02:42:21.943Z,10.53
2024-01-31T02:44:30.472Z,11.49
2024-01-31T02:46:39.373Z,10.92
2024-01-31T02:48:47.931Z,9.90
2024-01-31T02:50:56.167Z,9.05
2024-01-31T02:53:04.778Z,8.35
2024-01-31T02:55:13.443Z,7.82
2024-01-31T02:57:21.714Z,7.40
2024-01-31T02:59:29.795Z,7.07
2024-01-31T03:01:38.612Z,6.80
2024-01-31T03:03:46.801Z,6.61
2024-01-31T03:05:55.010Z,7.68
2024-01-31T03:08:03.326Z,9.83
2024-01-31T03:10:13.631Z,11.40
2024-01-31T03:12:23.276Z,11.72
2024-01-31T03:14:31.452Z,10.69
2024-01-31T03:16:41.894Z,9.74
2024-01-31T03:18:50.361Z,8.99
2024-01-31T03:20:58.519Z,8.37
2024-01-31T03:23:06.840Z,7.93
2024-01-31T03:25:15.402Z,7.57
2024-01-31T03:27:23.648Z,7.79
2024-01-31T03:29:31.770Z,9.63
2024-01-31T03:31:39.923Z,11.41
2024-01-31T03:33:48.149Z,12.09
2024-01-31T03:35:56.309Z,11.27
2024-01-31T03:38:04.429Z,10.31
2024-01-31T03:40:13.904Z,9.51
2024-01-31T03:42:22.557Z,8.89
2024-01-31T03:44:30.657Z,8.38
2024-01-31T03:46:38.854Z,7.98
2024-01-31T03:48:47.111Z,7.76
2024-01-31T03:50:55.243Z,9.09
2024-01-31T03:53:03.930Z,11.08
2024-01-31T03:55:13.234Z,12.02
2024-01-31T03:57:21.565Z,11.32
2024-01-31T03:59:29.699Z,10.30
2024-01-31T04:01:37.905Z,9.45
2024-01-31T04:03:47.508Z,8.80
2024-01-31T04:05:56.900Z,8.27
2024-01-31T04:08:05.612Z,7.88
2024-01-31T04:10:14.764Z,8.71
2024-01-31T04:12:22.951Z,10.76
2024-01-31T04:14:31.057Z,12.02
2024-01-31T04:16:39.173Z,11.61
2024-01-31T04:18:47.825Z,10.56
2024-01-31T04:20:56.015Z,9.63
2024-01-31T04:23:04.144Z,8.94
2024-01-31T04:25:12.428Z,8.42
2024-01-31T04:27:20.688Z,8.04
2024-01-31T04:29:28.815Z,8.58
2024-01-31T04:31:37.493Z,10.49
2024-01-31T04:33:46.546Z,11.92
2024-01-31T04:35:56.165Z,12.10
2024-01-31T04:38:04.320Z,11.13
2024-01-31T04:40:13.876Z,10.14
2024-01-31T04:42:22.037Z,9.33
2024-01-31T04:44:30.446Z,8.76
2024-01-31T04:46:38.817Z,8.29
2024-01-31T04:48:47.895Z,8.20
2024-01-31T04:50:56.057Z,9.90
2024-01-31T04:53:04.133Z,11.65
2024-01-31T04:55:12.770Z,12.44
2024-01-31T04:57:21.120Z,11.66
2024-01-31T04:59:29.264Z,10.62
2024-01-31T05:01:37.487Z,9.81
2024-01-31T05:03:46.101Z,9.15
2024-01-31T05:05:54.279Z,8.62
2024-01-31T05:08:02.395Z,8.20
2024-01-31T05:10:12.486Z,7.85
2024-01-31T05:12:21.379Z,7.54
2024-01-31T05:14:29.568Z,7.64
2024-01-31T05:16:40.876Z,9.40
2024-01-31T05:18:49.376Z,11.21
2024-01-31T05:20:57.737Z,12.08
2024-01-31T05:23:06.025Z,11.39
2024-01-31T05:25:14.554Z,10.35
2024-01-31T05:27:22.623Z,9.46
2024-01-31T05:29:30.766Z,8.76
2024-01-31T05:31:38.997Z,8.24
2024-01-31T05:33:47.529Z,8.61
2024-01-31T05:35:55.643Z,10.41
2024-01-31T05:38:03.751Z,11.95
2024-01-31T05:40:17.943Z,12.34
2024-01-31T05:42:26.223Z,11.41
2024-01-31T05:44:34.344Z,10.41
2024-01-31T05:46:42.571Z,9.60
2024-01-31T05:48:51.123Z,8.96
2024-01-31T05:50:59.716Z,8.43
2024-01-31T05:53:08.516Z,8.02
2024-01-31T05:55:16.891Z,7.69
2024-01-31T05:57:25.923Z,7.43
2024-01-31T05:59:35.518Z,7.54
2024-01-31T06:01:43.750Z,9.32
2024-01-31T06:03:52.066Z,11.15
2024-01-31T06:06:00.280Z,12.29
2024-01-31T06:08:09.639Z,12.70
2024-01-31T06:10:17.932Z,11.91
2024-01-31T06:12:26.073Z,10.81
2024-01-31T06:14:37.309Z,9.97
2024-01-31T06:16:45.450Z,9.32
2024-01-31T06:18:53.676Z,8.75
2024-01-31T06:21:01.904Z,8.31
2024-01-31T06:23:11.295Z,8.27
2024-01-31T06:25:19.687Z,9.84
2024-01-31T06:27:28.276Z,11.62
2024-01-31T06:29:36.343Z,12.53
2024-01-31T06:31:48.112Z,11.98
2024-01-31T06:33:56.921Z,10.96
2024-01-31T06:36:05.099Z,10.06
2024-01-31T06:38:13.212Z,9.32
2024-01-31T06:40:22.006Z,8.78
2024-01-31T06:42:30.118Z,8.36
2024-01-31T06:44:38.215Z,8.01
2024-01-31T06:46:50.492Z,8.11
2024-01-31T06:48:59.753Z,9.99
2024-01-31T06:51:09.824Z,11.81
2024-01-31T06:53:19.032Z,12.45
2024-01-31T06:55:27.522Z,11.69
2024-01-31T06:57:36.359Z,10.72
2024-01-31T06:59:44.482Z,9.89
2024-01-31T07:01:52.565Z,9.22
2024-01-31T07:04:00.732Z,8.72
2024-01-31T07:06:09.481Z,8.76
2024-01-31T07:08:17.732Z,10.52
2024-01-31T07:10:26.018Z,12.26
2024-01-31T07:12:34.219Z,12.99
2024-01-31T07:14:44.884Z,12.36
2024-01-31T07:16:53.257Z,11.30
2024-01-31T07:19:01.519Z,10.40
2024-01-31T07:21:13.260Z,9.71
2024-01-31T07:23:22.280Z,9.15
2024-01-31T07:25:30.427Z,9.08
2024-01-31T07:27:39.522Z,10.75
2024-01-31T07:29:49.870Z,12.31
2024-01-31T07:31:58.221Z,12.76
2024-01-31T07:34:06.514Z,11.90
2024-01-31T07:36:15.125Z,10.84
2024-01-31T07:38:23.980Z,10.08
2024-01-31T07:40:32.268Z,9.48
2024-01-31T07:42:41.264Z,8.99
2024-01-31T07:44:49.594Z,8.97
2024-01-31T07:46:58.775Z,10.60
2024-01-31T07:49:08.218Z,12.18
2024-01-31T07:51:16.932Z,12.79
2024-01-31T07:53:25.178Z,12.09
2024-01-31T07:55:33.490Z,11.12
2024-01-31T07:57:41.768Z,10.32
2024-01-31T07:59:49.982Z,9.67
2024-01-31T08:01:58.260Z,9.17
2024-01-31T08:04:08.364Z,9.15
2024-01-31T08:06:16.754Z,10.91
2024-01-31T08:08:25.154Z,12.70
2024-01-31T08:10:33.506Z,13.01
2024-01-31T08:12:42.552Z,11.95
2024-01-31T08:14:50.729Z,11.01
2024-01-31T08:16:58.984Z,10.28
2024-01-31T08:19:08.001Z,9.68
2024-01-31T08:21:16.502Z,9.22
2024-01-31T08:23:24.756Z,9.06
2024-01-31T08:25:33.289Z,10.64
2024-01-31T08:27:41.736Z,12.33
2024-01-31T08:29:49.991Z,13.31
2024-01-31T08:31:58.312Z,12.73
2024-01-31T08:34:06.759Z,11.65
2024-01-31T08:36:15.282Z,10.83
2024-01-31T08:38:24.840Z,10.16
2024-01-31T08:40:33.088Z,9.67
2024-01-31T08:42:41.515Z,9.97
2024-01-31T08:44:50.075Z,11.82
2024-01-31T08:47:10.162Z,13.38
2024-01-31T08:49:26.678Z,13.62
2024-01-31T08:51:36.789Z,12.45
2024-01-31T08:53:45.423Z,11.44
2024-01-31T08:56:01.531Z,10.65
2024-01-31T08:58:17.022Z,9.98
2024-01-31T09:00:25.663Z,9.95
2024-01-31T09:02:33.957Z,11.69
2024-01-31T09:04:42.327Z,13.23
2024-01-31T09:06:50.748Z,13.61
2024-01-31T09:08:59.114Z,12.74
2024-01-31T09:11:07.731Z,11.56
2024-01-31T09:13:16.124Z,10.74
2024-01-31T09:15:24.396Z,10.14
2024-01-31T09:17:32.657Z,10.27
2024-01-31T09:19:43.028Z,12.07
2024-01-31T09:21:53.202Z,13.47
2024-01-31T09:24:02.122Z,13.34
2024-01-31T09:26:11.060Z,12.37
2024-01-31T09:28:19.319Z,11.46
2024-01-31T09:30:27.585Z,10.75
2024-01-31T09:32:35.857Z,10.20
2024-01-31T09:34:44.982Z,10.29
2024-01-31T09:36:53.666Z,11.99
2024-01-31T09:39:01.886Z,13.43
2024-01-31T09:41:10.171Z,13.32
2024-01-31T09:43:18.509Z,12.36
2024-01-31T09:45:29.217Z,11.45
2024-01-31T09:47:39.262Z,10.75
2024-01-31T09:49:47.552Z,10.19
2024-01-31T09:52:01.229Z,10.34
2024-01-31T09:54:11.842Z,12.32
2024-01-31T09:56:20.519Z,13.53
2024-01-31T09:58:29.020Z,13.13
2024-01-31T10:00:38.570Z,12.15
2024-01-31T10:02:50.114Z,11.31
2024-01-31T10:04:58.572Z,10.66
2024-01-31T10:07:09.500Z,10.23
2024-01-31T10:09:18.512Z,11.38
2024-01-31T10:11:26.888Z,13.16
2024-01-31T10:13:35.235Z,13.77
2024-01-31T10:15:43.927Z,13.05
2024-01-31T10:17:52.205Z,12.05
2024-01-31T10:20:08.249Z,11.21
2024-01-31T10:22:16.735Z,10.52
2024-01-31T10:24:25.115Z,10.05
2024-01-31T10:26:35.482Z,9.68
2024-01-31T10:28:45.796Z,9.76
2024-01-31T10:30:59.459Z,11.79
2024-01-31T10:33:08.978Z,13.41
2024-01-31T10:35:32.877Z,13.49
2024-01-31T10:37:55.800Z,12.33
2024-01-31T10:40:11.877Z,11.33
2024-01-31T10:42:20.828Z,10.61
2024-01-31T10:44:29.984Z,10.20
2024-01-31T10:46:38.368Z,11.67
2024-01-31T10:48:47.042Z,13.37
2024-01-31T10:50:58.037Z,14.11
2024-01-31T10:53:10.150Z,13.37
2024-01-31T10:55:19.319Z,12.25
2024-01-31T10:57:29.430Z,11.34
2024-01-31T10:59:39.629Z,10.61
2024-01-31T11:02:00.142Z,10.04
2024-01-31T11:04:11.508Z,9.59
2024-01-31T11:06:20.678Z,9.64
2024-01-31T11:08:29.409Z,11.36
2024-01-31T11:10:39.900Z,13.09
2024-01-31T11:13:00.937Z,13.67
2024-01-31T11:15:10.878Z,12.78
2024-01-31T11:17:25.027Z,11.77
2024-01-31T11:19:34.428Z,10.95
2024-01-31T11:21:42.700Z,10.38
2024-01-31T11:23:51.226Z,9.95
2024-01-31T11:26:00.247Z,10.50
2024-01-31T11:28:11.192Z,12.45
2024-01-31T11:30:19.825Z,13.09
2024-01-31T11:32:28.334Z,12.36
2024-01-31T11:34:36.764Z,11.49
2024-01-31T11:36:45.192Z,10.77
2024-01-31T11:38:53.496Z,10.20
2024-01-31T11:41:02.179Z,9.71
2024-01-31T11:43:11.573Z,9.72
2024-01-31T11:45:20.284Z,11.44
2024-01-31T11:47:29.395Z,12.49
2024-01-31T11:49:37.858Z,12.10
2024-01-31T11:51:54.571Z,11.20
2024-01-31T11:54:02.918Z,10.49
2024-01-31T11:56:12.723Z,9.88
2024-01-31T11:58:21.120Z,9.42
2024-01-31T12:00:30.798Z,9.06
2024-01-31T12:02:40.154Z,9.86
2024-01-31T12:04:59.513Z,11.73
2024-01-31T12:07:09.458Z,13.10
2024-01-31T12:09:18.509Z,12.76
2024-01-31T12:11:27.286Z,11.71
2024-01-31T12:13:35.992Z,10.82
2024-01-31T12:15:44.253Z,10.16
2024-01-31T12:17:52.751Z,9.62
2024-01-31T12:20:10.356Z,9.18
2024-01-31T12:22:19.698Z,9.37
2024-01-31T12:24:27.903Z,11.27
2024-01-31T12:26:36.208Z,12.80
2024-01-31T12:28:54.722Z,12.69
2024-01-31T12:31:02.980Z,11.65
2024-01-31T12:33:11.310Z,10.75
2024-01-31T12:35:20.982Z,10.11
2024-01-31T12:37:29.420Z,9.62
2024-01-31T12:39:37.655Z,9.24
2024-01-31T12:41:49.292Z,8.95
2024-01-31T12:43:58.360Z,9.12
2024-01-31T12:46:07.463Z,10.92
2024-01-31T12:48:16.191Z,12.61
2024-01-31T12:50:24.474Z,12.45
2024-01-31T12:52:32.686Z,11.54
2024-01-31T12:54:40.937Z,10.65
2024-01-31T12:56:49.278Z,10.00
2024-01-31T12:58:58.987Z,9.50
2024-01-31T13:01:08.135Z,9.07
2024-01-31T13:03:16.535Z,8.72
2024-01-31T13:05:25.526Z,8.45
2024-01-31T13:07:34.150Z,8.65
2024-01-31T13:09:42.935Z,10.56
2024-01-31T13:11:51.172Z,12.34
2024-01-31T13:13:59.320Z,13.00
2024-01-31T13:16:08.887Z,12.25
2024-01-31T13:18:17.192Z,11.29
2024-01-31T13:20:25.553Z,10.44
2024-01-31T13:22:33.744Z,9.81
2024-01-31T13:24:41.872Z,9.33
2024-01-31T13:26:50.328Z,8.92
2024-01-31T13:28:58.612Z,8.81
2024-01-31T13:31:06.892Z,10.49
2024-01-31T13:33:15.108Z,12.23
2024-01-31T13:35:24.207Z,12.91
2024-01-31T13:37:32.425Z,12.17
2024-01-31T13:39:40.515Z,11.18
2024-01-31T13:41:48.633Z,10.40
2024-01-31T13:43:56.689Z,9.80
2024-01-31T13:46:05.266Z,9.33
2024-01-31T13:48:13.478Z,8.96
2024-01-31T13:50:21.785Z,8.66
2024-01-31T13:52:30.317Z,8.40
2024-01-31T13:54:38.508Z,8.65
2024-01-31T13:56:46.618Z,10.64
2024-01-31T13:58:54.736Z,12.47
2024-01-31T14:01:03.243Z,12.63
2024-01-31T14:03:11.485Z,11.68
2024-01-31T14:05:20.163Z,10.66
2024-01-31T14:07:28.336Z,9.95
2024-01-31T14:09:36.447Z,9.42
2024-01-31T14:11:44.662Z,8.98
2024-01-31T14:13:52.819Z,8.60
2024-01-31T14:16:00.894Z,8.29
2024-01-31T14:18:13.249Z,8.03
2024-01-31T14:20:23.090Z,9.06
2024-01-31T14:24:43.605Z,12.38
2024-01-31T14:26:52.190Z,11.82
2024-01-31T14:29:00.299Z,10.74
2024-01-31T14:31:10.670Z,9.93
2024-01-31T14:33:18.940Z,9.25
2024-01-31T14:35:27.254Z,8.71
2024-01-31T14:37:35.412Z,8.31
2024-01-31T14:39:43.615Z,7.99
2024-01-31T14:41:51.780Z,7.70
2024-01-31T14:43:59.937Z,7.90
2024-01-31T14:46:08.268Z,9.85
2024-01-31T14:48:17.705Z,11.77
2024-01-31T14:50:26.097Z,12.24
2024-01-31T14:52:35.512Z,11.28
2024-01-31T14:54:43.846Z,10.32
2024-01-31T14:56:53.388Z,9.58
2024-01-31T14:59:01.660Z,9.02
2024-01-31T15:01:10.442Z,8.57
2024-01-31T15:03:18.664Z,8.23
2024-01-31T15:05:27.636Z,7.95
2024-01-31T15:07:35.977Z,7.69
2024-01-31T15:09:44.115Z,7.46
2024-01-31T15:11:52.816Z,7.25
2024-01-31T15:14:01.220Z,7.11
2024-01-31T15:16:15.770Z,8.15
2024-01-31T15:18:24.027Z,10.44
2024-01-31T15:20:32.515Z,11.87
2024-01-31T15:22:40.828Z,11.55
2024-01-31T15:24:48.995Z,10.60
2024-01-31T15:26:57.162Z,9.69
2024-01-31T15:29:05.324Z,8.95
2024-01-31T15:31:13.543Z,8.41
2024-01-31T15:33:21.951Z,7.97
2024-01-31T15:35:32.407Z,7.60
2024-01-31T15:37:40.667Z,7.29
2024-01-31T15:39:48.861Z,7.03
2024-01-31T15:41:57.204Z,6.82
2024-01-31T15:44:05.360Z,7.24
2024-01-31T15:46:14.602Z,9.34
2024-01-31T15:48:23.724Z,11.23
2024-01-31T15:50:32.325Z,11.41
2024-01-31T15:52:40.807Z,10.39
2024-01-31T15:54:49.062Z,9.53
2024-01-31T15:56:57.484Z,8.82
2024-01-31T15:59:28.489Z,8.15
2024-01-31T16:01:38.080Z,7.69
2024-01-31T16:03:46.730Z,7.36
2024-01-31T16:05:55.133Z,7.09
2024-01-31T16:08:03.631Z,6.86
2024-01-31T16:10:12.416Z,7.20
2024-01-31T16:12:20.831Z,9.39
2024-01-31T16:14:29.250Z,10.77
2024-01-31T16:16:37.430Z,10.59
2024-01-31T16:18:45.761Z,9.73
2024-01-31T16:20:54.307Z,8.93
2024-01-31T16:23:03.055Z,8.29
2024-01-31T16:25:12.299Z,7.81
2024-01-31T16:27:20.561Z,7.43
2024-01-31T16:29:28.904Z,7.12
2024-01-31T16:31:40.467Z,7.05
2024-01-31T16:33:48.749Z,8.78
2024-01-31T16:35:58.923Z,10.84
2024-01-31T16:38:08.518Z,11.48
2024-01-31T16:40:17.432Z,10.60
2024-01-31T16:42:25.667Z,9.62
2024-01-31T16:44:33.885Z,8.85
2024-01-31T16:46:42.621Z,8.27
2024-01-31T16:48:52.829Z,7.82
2024-01-31T16:51:01.317Z,7.43
2024-01-31T16:53:09.509Z,7.12
2024-01-31T16:55:18.096Z,6.87
2024-01-31T16:57:26.270Z,7.14
2024-01-31T16:59:34.696Z,9.11
2024-01-31T17:01:47.016Z,10.83
2024-01-31T17:03:55.525Z,11.53
2024-01-31T17:06:04.578Z,10.80
2024-01-31T17:08:12.905Z,9.79
2024-01-31T17:10:21.113Z,8.92
2024-01-31T17:12:30.378Z,8.18
2024-01-31T17:14:43.759Z,7.67
2024-01-31T17:16:55.682Z,7.24
2024-01-31T17:19:05.723Z,6.94
2024-01-31T17:21:14.700Z,6.68
2024-01-31T17:23:25.608Z,6.46
2024-01-31T17:25:35.423Z,6.83
2024-01-31T17:27:43.569Z,8.89
2024-01-31T17:29:51.794Z,10.19
2024-01-31T17:31:59.995Z,9.98
2024-01-31T17:34:08.366Z,9.22
2024-01-31T17:36:19.065Z,8.44
2024-01-31T17:38:27.301Z,7.83
2024-01-31T17:40:35.525Z,7.36
2024-01-31T17:42:44.133Z,6.97
2024-01-31T17:44:53.027Z,6.66
2024-01-31T17:47:01.556Z,6.76
2024-01-31T17:49:09.748Z,8.73
2024-01-31T17:51:18.102Z,10.67
2024-01-31T17:53:26.308Z,11.55
2024-01-31T17:55:34.760Z,10.75
2024-01-31T17:57:43.458Z,9.72
2024-01-31T17:59:52.586Z,8.83
2024-01-31T18:02:01.782Z,8.09
2024-01-31T18:04:11.325Z,7.56
2024-01-31T18:06:19.563Z,7.16
2024-01-31T18:08:27.849Z,6.81
2024-01-31T18:10:36.359Z,6.53
2024-01-31T18:12:44.523Z,6.53
2024-01-31T18:14:52.722Z,8.27
2024-01-31T18:17:00.880Z,10.27
2024-01-31T18:19:09.215Z,11.37
2024-01-31T18:21:17.743Z,10.77
2024-01-31T18:23:26.499Z,9.79
2024-01-31T18:25:34.666Z,8.94
2024-01-31T18:27:42.853Z,8.24
2024-01-31T18:29:51.513Z,7.73
2024-01-31T18:31:59.758Z,7.30
2024-01-31T18:34:07.980Z,6.95
2024-01-31T18:36:16.336Z,6.68
2024-01-31T18:38:25.215Z,6.95
2024-01-31T18:40:33.290Z,8.85
2024-01-31T18:42:41.389Z,10.65
2024-01-31T18:44:50.893Z,10.91
2024-01-31T18:46:59.921Z,10.03
2024-01-31T18:49:09.740Z,9.10
2024-01-31T18:51:18.278Z,8.35
2024-01-31T18:53:26.423Z,7.78
2024-01-31T18:55:34.571Z,7.33
2024-01-31T18:57:42.679Z,6.96
2024-01-31T18:59:51.536Z,6.66
2024-01-31T19:02:02.004Z,7.13
2024-01-31T19:04:10.122Z,9.19
2024-01-31T19:06:20.026Z,10.87
2024-01-31T19:08:28.454Z,11.25
2024-01-31T19:10:37.121Z,10.22
2024-01-31T19:12:45.196Z,9.23
2024-01-31T19:14:53.349Z,8.42
2024-01-31T19:17:10.490Z,7.77
2024-01-31T19:19:23.855Z,7.21
2024-01-31T19:21:32.108Z,6.79
2024-01-31T19:23:40.262Z,6.46
2024-01-31T19:25:48.713Z,6.24
2024-01-31T19:27:57.087Z,7.34
2024-01-31T19:30:08.656Z,9.34
2024-01-31T19:32:18.835Z,10.50
2024-01-31T19:34:27.016Z,9.86
2024-01-31T19:36:35.483Z,8.89
2024-01-31T19:38:43.607Z,8.07
2024-01-31T19:40:52.965Z,7.50
2024-01-31T19:43:01.091Z,7.03
2024-01-31T19:45:11.656Z,6.65
2024-01-31T19:47:21.936Z,6.34
2024-01-31T19:49:31.424Z,6.17
2024-01-31T19:51:39.623Z,7.57
2024-01-31T19:53:53.056Z,9.63
2024-01-31T19:56:01.221Z,10.92
2024-01-31T19:58:10.105Z,10.47
2024-01-31T20:00:19.947Z,9.46
2024-01-31T20:02:28.097Z,8.56
2024-01-31T20:04:36.645Z,7.88
2024-01-31T20:06:44.987Z,7.35
2024-01-31T20:08:53.830Z,6.93
2024-01-31T20:11:02.696Z,6.57
2024-01-31T20:13:10.883Z,6.27
2024-01-31T20:15:19.605Z,6.02
2024-01-31T20:17:30.429Z,6.38
2024-01-31T20:19:39.060Z,8.63
2024-01-31T20:21:48.338Z,10.46
2024-01-31T20:23:58.131Z,10.37
2024-01-31T20:26:06.531Z,9.39
2024-01-31T20:28:14.654Z,8.47
2024-01-31T20:30:23.137Z,7.78
2024-01-31T20:32:31.355Z,7.24
2024-01-31T20:34:39.623Z,6.83
2024-01-31T20:36:47.764Z,6.51
2024-01-31T20:38:55.972Z,6.24
2024-01-31T20:41:04.156Z,6.02
2024-01-31T20:43:12.229Z,6.38
2024-01-31T20:45:20.973Z,8.40
2024-01-31T20:47:29.587Z,10.27
2024-01-31T20:49:41.333Z,10.82
2024-01-31T20:51:49.621Z,9.95
2024-01-31T20:53:57.715Z,8.90
2024-01-31T20:56:08.533Z,8.09
2024-01-31T20:58:17.093Z,7.48
2024-01-31T21:00:25.665Z,7.02
2024-01-31T21:02:34.234Z,6.66
2024-01-31T21:04:42.625Z,6.36
2024-01-31T21:06:50.934Z,6.10
2024-01-31T21:08:59.195Z,6.26
2024-01-31T21:11:08.215Z,8.13
2024-01-31T21:13:18.271Z,9.75
2024-01-31T21:15:26.687Z,9.29
2024-01-31T21:17:35.392Z,8.43
2024-01-31T21:19:43.569Z,7.71
2024-01-31T21:21:51.882Z,7.11
2024-01-31T21:24:00.902Z,6.62
2024-01-31T21:26:09.848Z,6.25
2024-01-31T21:28:21.244Z,6.50
2024-01-31T21:30:29.513Z,8.51
2024-01-31T21:32:37.722Z,10.10
2024-01-31T21:34:45.958Z,10.38
2024-01-31T21:36:54.129Z,9.48
2024-01-31T21:39:02.509Z,8.45
2024-01-31T21:41:10.762Z,7.72
2024-01-31T21:43:18.922Z,7.18
2024-01-31T21:45:26.988Z,6.75
2024-01-31T21:47:35.187Z,6.41
2024-01-31T21:49:43.497Z,6.13
2024-01-31T21:51:51.653Z,6.87
2024-01-31T21:53:59.869Z,8.95
2024-01-31T21:56:09.533Z,10.14
2024-01-31T21:58:18.064Z,9.60
2024-01-31T22:00:26.770Z,8.71
2024-01-31T22:02:35.746Z,7.96
2024-01-31T22:04:45.580Z,7.30
2024-01-31T22:06:56.420Z,6.81
2024-01-31T22:09:06.090Z,6.44
2024-01-31T22:11:15.519Z,6.10
2024-01-31T22:13:24.206Z,5.82
2024-01-31T22:15:32.850Z,5.58
2024-01-31T22:17:42.549Z,5.76
2024-01-31T22:19:51.228Z,7.75
2024-01-31T22:21:59.570Z,9.68
2024-01-31T22:24:10.565Z,10.70
2024-01-31T22:26:20.916Z,10.08
2024-01-31T22:28:29.127Z,8.98
2024-01-31T22:30:37.311Z,8.11
2024-01-31T22:32:45.577Z,7.44
2024-01-31T22:34:54.057Z,6.87
2024-01-31T22:37:03.031Z,6.44
2024-01-31T22:39:19.609Z,6.07
2024-01-31T22:41:27.982Z,5.72
2024-01-31T22:43:36.596Z,5.46
2024-01-31T22:45:44.738Z,5.21
2024-01-31T22:47:52.984Z,4.96
2024-01-31T22:50:01.534Z,4.90
2024-01-31T22:52:10.253Z,6.51
2024-01-31T22:54:18.839Z,8.70
2024-01-31T22:56:27.482Z,10.16
2024-01-31T22:58:35.525Z,9.85
2024-01-31T23:00:43.700Z,8.80
2024-01-31T23:02:52.408Z,7.83
2024-01-31T23:05:00.732Z,7.10
2024-01-31T23:07:09.440Z,6.52
2024-01-31T23:09:17.768Z,6.04
2024-01-31T23:11:26.274Z,5.66
2024-01-31T23:13:35.353Z,5.35
2024-01-31T23:15:43.808Z,5.09
2024-01-31T23:17:52.464Z,4.99
2024-01-31T23:20:01.131Z,6.47
2024-01-31T23:22:10.406Z,8.65
2024-01-31T23:24:19.051Z,10.18
2024-01-31T23:26:27.235Z,9.94
2024-01-31T23:28:35.331Z,8.85
2024-01-31T23:30:43.871Z,7.83
2024-01-31T23:32:52.368Z,7.01
2024-01-31T23:35:00.587Z,6.41
2024-01-31T23:37:09.651Z,5.96
2024-01-31T23:39:17.819Z,5.57
2024-01-31T23:41:26.666Z,5.66
2024-01-31T23:43:34.798Z,7.54
2024-01-31T23:45:43.397Z,9.41
2024-01-31T23:47:51.599Z,10.26
2024-01-31T23:50:00.243Z,9.49
2024-01-31T23:52:09.787Z,8.32
2024-01-31T23:54:17.942Z,7.37
2024-01-31T23:56:26.101Z,6.64
2024-01-31T23:58:34.250Z,6.14
